METAR Data
IDs: Format: Raw Decoded Include TAF

Data at: 2034 UTC 18 Apr 2021

KLCQ 182015Z AUTO 00000KT 7SM -RA SCT028 OVC037 19/18 A2988 RMK AO2 LTG DSNT NE P0003
KLCQ 181955Z AUTO 32005KT 7SM +RA OVC035 20/18 A2990 RMK AO2 P0001
KLCQ 181935Z AUTO 28003KT 10SM -DZ OVC035 20/18 A2989 RMK AO2 LTG DSNT N AND NW
KLCQ 181915Z AUTO 25003KT 10SM SCT012 SCT017 OVC037 20/18 A2988 RMK AO2 LTG DSNT N
KLCQ 181855Z AUTO 25006KT 10SM BKN013 BKN017 OVC049 20/18 A2989 RMK AO2
KLCQ 181835Z AUTO 26003KT 10SM BKN010 BKN023 OVC075 20/18 A2989 RMK AO2 LTG DSNT W AND NW
KLCQ 181815Z AUTO 26006KT 10SM BKN010 OVC021 20/18 A2992 RMK AO2
KLCQ 181755Z AUTO 22003KT 10SM SCT007 SCT014 OVC021 20/18 A2991 RMK AO2
KLCQ 181735Z AUTO 23006KT 10SM RA SCT007 OVC014 19/18 A2992 RMK AO2 LTG DSNT W
KLCQ 181715Z AUTO 25006KT 10SM -RA SCT009 OVC014 19/18 A2992 RMK AO2
KLCQ 181655Z AUTO 00000KT 10SM -RA BKN009 BKN019 OVC050 19/18 A2991 RMK AO2 P0003
KLCQ 181635Z AUTO 31004KT 10SM -RA BKN007 BKN018 OVC075 19/18 A2992 RMK AO2 P0002
KLCQ 181615Z AUTO 28003KT 10SM RA SCT007 BKN013 OVC039 18/18 A2994 RMK AO2 P0001
KLCQ 181555Z AUTO 24008KT 7SM -RA OVC009 18/18 A2996 RMK AO2 P0001
KLCQ 181535Z AUTO 23004KT 10SM BKN007 OVC012 18/18 A2994 RMK AO2 P0001
KLCQ 181515Z AUTO 24004KT 10SM -RA BKN005 OVC010 18/17 A2994 RMK AO2 P0001
KLCQ 181455Z AUTO 21003KT 10SM -RA OVC005 18/17 A2994 RMK AO2 LTG DSNT E AND S P0011
KLCQ 181435Z AUTO 22009KT 7SM RA BKN005 BKN017 OVC090 17/17 A2997 RMK AO2 P0007
KLCQ 181415Z AUTO 23007KT 7SM RA SCT003 SCT022 OVC100 17/17 A2996 RMK AO2 P0003
KLCQ 181355Z AUTO 22003KT 7SM RA BKN003 BKN016 OVC090 17/17 A2995 RMK AO2 P0013
KLCQ 181335Z AUTO 00000KT 5SM VCTSRA BKN005 BKN042 OVC110 17/17 A2994 RMK AO2 LTG DSNT SE P0009
KLCQ 181315Z AUTO 00000KT 5SM -VCTSRA SCT007 SCT039 OVC100 17/17 A2994 RMK AO2 P0004
KLCQ 181255Z AUTO 22004KT 4SM RA SCT004 SCT023 OVC100 17/17 A2995 RMK AO2 LTG DSNT S P0017
KLCQ 181235Z AUTO 26003KT 4SM RA BKN004 BKN021 OVC075 17/17 A2995 RMK AO2 P0011
KLCQ 181215Z AUTO 00000KT 4SM RA BKN004 BKN010 OVC060 17/17 A2995 RMK AO2 P0004
KLCQ 181155Z AUTO 21003KT 4SM RA BKN004 BKN049 OVC060 17/17 A2994 RMK AO2 P0006
KLCQ 181135Z AUTO 21004KT 5SM RA BKN002 BKN009 OVC046 17/17 A2992 RMK AO2 P0001
KLCQ 181115Z AUTO 17004KT 10SM BKN004 OVC009 17/17 A2989 RMK AO2
KLCQ 181055Z AUTO 14004KT 10SM OVC005 17/17 A2989 RMK AO2 P0011
KLCQ 181035Z AUTO 15003KT 5SM RA BKN003 OVC095 17/17 A2990 RMK AO2 LTG DSNT SW P0009
KLCQ 181015Z AUTO 27004KT 7SM -RA SCT008 SCT047 OVC095 17/17 A2992 RMK AO2 P0005
KLCQ 180955Z AUTO 31005KT 10SM +RA OVC008 17/17 A2991 RMK AO2 P0004
KLCQ 180935Z AUTO 31004KT 7SM RA BKN006 OVC012 17/17 A2991 RMK AO2 P0002
KLCQ 180915Z AUTO 28004KT 7SM -RA OVC004 17/17 A2991 RMK AO2 P0001
KLCQ 180855Z AUTO 28003KT 7SM OVC002 17/17 A2989 RMK AO2
KLCQ 180835Z AUTO 25004KT 7SM BKN002 OVC010 17/17 A2989 RMK AO2
KLCQ 180815Z AUTO 00000KT 7SM SCT002 OVC010 17/17 A2988 RMK AO2
KLCQ 180755Z AUTO 00000KT 10SM OVC008 17/17 A2989 RMK AO2 P0001
KLCQ 180735Z AUTO 26004KT 7SM -RA BKN008 BKN120 17/17 A2989 RMK AO2 P0001
KLCQ 180715Z AUTO 08003KT 10SM SCT008 SCT034 SCT048 17/17 A2985 RMK AO2 P0001
KLCQ 180655Z AUTO 00000KT 10SM -RA SCT008 BKN090 OVC110 17/17 A2988 RMK AO2 P0009
KLCQ 180635Z AUTO 24005KT 10SM -RA SCT008 SCT055 OVC100 18/17 A2993 RMK AO2 P0008
KLCQ 180615Z AUTO 23007KT 7SM RA SCT049 BKN060 OVC090 18/17 A2993 RMK AO2 P0006
KLCQ 180555Z AUTO 28007KT 7SM +RA SCT070 OVC090 18/17 A2993 RMK AO2 P0005
KLCQ 180535Z AUTO 28004KT 7SM RA SCT045 SCT065 OVC100 18/17 A2992 RMK AO2 P0002
KLCQ 180515Z AUTO 00000KT 10SM DZ OVC100 18/17 A2989 RMK AO2
KLCQ 180455Z AUTO 00000KT 7SM -RA OVC090 18/17 A2990 RMK AO2
KLCQ 180435Z AUTO 17003KT 10SM OVC080 18/17 A2990 RMK AO2
KLCQ 180415Z AUTO 23003KT 10SM OVC080 18/17 A2991 RMK AO2 LTG DSNT W
KLCQ 180355Z AUTO 26004KT 10SM OVC080 18/18 A2991 RMK AO2
KLCQ 180335Z AUTO 23005KT 10SM OVC090 18/18 A2992 RMK AO2
KLCQ 180315Z AUTO 00000KT 10SM OVC090 18/17 A2989 RMK AO2
KLCQ 180255Z AUTO 00000KT 10SM SCT010 OVC100 18/18 A2989 RMK AO2 LTG DSNT W
KLCQ 180235Z AUTO 00000KT 10SM SCT010 SCT038 OVC090 18/18 A2988 RMK AO2 LTG DSNT E
KLCQ 180215Z AUTO 00000KT 7SM -RA BKN008 BKN042 OVC080 18/18 A2989 RMK AO2 LTG DSNT SE
KLCQ 180155Z AUTO 00000KT 7SM -DZ SCT006 BKN012 OVC085 18/18 A2989 RMK AO2 P0001
KLCQ 180135Z AUTO 00000KT 7SM -RA OVC085 18/18 A2989 RMK AO2 LTG DSNT SE AND S P0001
KLCQ 180115Z AUTO 23003KT 7SM OVC085 18/18 A2988 RMK AO2 LTG DSNT SW AND W P0001
KLCQ 180055Z AUTO 00000KT 7SM -RA SCT006 BKN075 OVC100 18/17 A2986 RMK AO2 LTG DSNT SE THRU SW P0009
KLCQ 180035Z AUTO 32005KT 5SM +VCTSRA SCT019 BKN038 OVC050 18/17 A2988 RMK AO2 LTG DSNT ALQS P0005
KLCQ 180015Z AUTO 33008KT 10SM TSDZ OVC031 19/17 A2989 RMK AO2 LTG DSNT ALQS
KLCQ 172355Z AUTO 00000KT 10SM TS OVC029 20/17 A2987 RMK AO2 LTG DSNT ALQS
KLCQ 172335Z AUTO 01004KT 10SM OVC029 20/17 A2986 RMK AO2 LTG DSNT W AND NW
KLCQ 172315Z AUTO 36005KT 10SM BKN031 OVC039 20/18 A2986 RMK AO2 LTG DSNT W AND NW
KLCQ 172255Z AUTO 36004KT 10SM SCT034 OVC041 21/18 A2986 RMK AO2 LTG DSNT NE AND W
KLCQ 172235Z AUTO 36004KT 10SM SCT029 SCT034 OVC041 21/18 A2986 RMK AO2 LTG DSNT N AND NE
KLCQ 172215Z AUTO 34005KT 10SM SCT029 OVC043 21/18 A2986 RMK AO2
KLCQ 172155Z AUTO 35003KT 10SM OVC029 21/18 A2986 RMK AO2 LTG DSNT N
KLCQ 172135Z AUTO 35003KT 10SM SCT023 OVC031 21/18 A2985 RMK AO2 LTG DSNT N
KLCQ 172115Z AUTO 36003KT 10SM SCT031 22/18 A2984 RMK AO2 LTG DSNT N
KLCQ 172055Z AUTO 00000KT 10SM SCT023 BKN033 22/17 A2983 RMK AO2 LTG DSNT NW
KLCQ 172035Z AUTO 34003KT 10SM SCT023 SCT028 OVC033 22/17 A2983 RMK AO2
KLCQ 172015Z AUTO 00000KT 10SM BKN035 22/17 A2984 RMK AO2
KLCQ 171955Z AUTO 00000KT 10SM SCT027 BKN035 22/17 A2984 RMK AO2
KLCQ 171935Z AUTO 00000KT 10SM SCT021 BKN034 OVC110 22/17 A2986 RMK AO2
KLCQ 171915Z AUTO 34003KT 10SM BKN019 BKN024 BKN120 21/17 A2987 RMK AO2
KLCQ 171855Z AUTO 00000KT 10SM BKN015 21/17 A2987 RMK AO2
KLCQ 171835Z AUTO 25003KT 10SM BKN013 BKN019 OVC024 21/18 A2989 RMK AO2
KLCQ 171815Z AUTO 00000KT 10SM BKN013 OVC019 20/17 A2989 RMK AO2
KLCQ 171755Z AUTO 00000KT 10SM BKN009 OVC013 19/17 A2989 RMK AO2
KLCQ 171735Z AUTO 00000KT 10SM OVC007 19/17 A2988 RMK AO2
KLCQ 171715Z AUTO 11003KT 10SM OVC007 19/17 A2989 RMK AO2
KLCQ 171655Z AUTO 00000KT 10SM OVC005 18/17 A2990 RMK AO2
KLCQ 171635Z AUTO 07003KT 10SM OVC005 18/17 A2991 RMK AO2
KLCQ 171615Z AUTO 00000KT 10SM OVC005 18/17 A2992 RMK AO2
KLCQ 171555Z AUTO 12003KT 7SM OVC005 18/17 A2991 RMK AO2
KLCQ 171535Z AUTO 09003KT 10SM OVC005 17/17 A2992 RMK AO2
KLCQ 171515Z AUTO 01003KT 10SM OVC003 17/17 A2992 RMK AO2
KLCQ 171455Z AUTO 04003KT 7SM OVC003 17/17 A2991 RMK AO2
KLCQ 171435Z AUTO 02005KT 10SM OVC003 17/17 A2991 RMK AO2
KLCQ 171415Z AUTO 00000KT 10SM OVC003 17/17 A2990 RMK AO2
KLCQ 171355Z AUTO 11003KT 7SM OVC003 17/16 A2990 RMK AO2
KLCQ 171335Z AUTO 00000KT 7SM OVC003 17/16 A2990 RMK AO2
KLCQ 171315Z AUTO 20003KT 7SM -RA OVC003 16/16 A2990 RMK AO2
KLCQ 171255Z AUTO 15005KT 5SM BR OVC003 16/16 A2987 RMK AO2 LTG DSNT SE P0001
KLCQ 171235Z AUTO 12005KT 3SM -RA OVC003 16/16 A2986 RMK AO2 LTG DSNT SE P0001
KLCQ 171215Z AUTO 00000KT 5SM -RA OVC003 16/16 A2988 RMK AO2
KLCQ 171155Z AUTO 00000KT 7SM OVC003 16/16 A2987 RMK AO2
KLCQ 171135Z AUTO 00000KT 5SM BR OVC003 16/16 A2986 RMK AO2
KLCQ 171115Z AUTO 13004KT 4SM BR OVC003 16/16 A2984 RMK AO2 LTG DSNT SW
KLCQ 171055Z AUTO 12005KT 5SM BR OVC003 16/16 A2984 RMK AO2
KLCQ 171035Z AUTO 12006KT 4SM RA OVC003 16/16 A2984 RMK AO2 LTG DSNT S
KLCQ 171015Z AUTO 00000KT 7SM OVC003 16/16 A2985 RMK AO2 LTG DSNT S
KLCQ 170955Z AUTO 00000KT 7SM OVC003 16/16 A2984 RMK AO2 LTG DSNT S
KLCQ 170935Z AUTO 04003KT 7SM OVC003 16/16 A2984 RMK AO2 LTG DSNT W
KLCQ 170915Z AUTO 13005KT 7SM OVC003 16/16 A2983 RMK AO2 LTG DSNT S AND SW
KLCQ 170855Z AUTO 00000KT 5SM BR BKN003 OVC014 16/16 A2985 RMK AO2 LTG DSNT S
KLCQ 170835Z AUTO 03004KT 4SM VCTS BR OVC003 16/16 A2985 RMK AO2 LTG DSNT SE